createdAt,value
2023-01-08T00:01:31.729Z,37.20
2023-01-08T00:04:18.696Z,47.55
2023-01-08T00:06:59.727Z,53.17
2023-01-08T00:09:48.388Z,44.05
2023-01-08T00:12:29.729Z,40.63
2023-01-08T00:15:16.975Z,41.50
2023-01-08T00:17:57.424Z,42.97
2023-01-08T00:20:49.034Z,43.33
2023-01-08T00:23:30.901Z,37.50
2023-01-08T00:26:17.748Z,37.60
2023-01-08T00:28:59.333Z,40.78
2023-01-08T00:31:46.922Z,38.85
2023-01-08T00:34:27.388Z,38.72
2023-01-08T00:37:14.752Z,42.70
2023-01-08T00:39:55.542Z,41.00
2023-01-08T00:42:42.560Z,39.30
2023-01-08T00:45:37.922Z,36.38
2023-01-08T00:48:25.417Z,36.35
2023-01-08T00:51:08.935Z,34.78
2023-01-08T00:53:57.279Z,34.10
2023-01-08T00:56:38.537Z,33.45
2023-01-08T00:59:25.679Z,35.53
2023-01-08T01:02:07.046Z,31.83
2023-01-08T01:04:54.428Z,35.75
2023-01-08T01:07:41.530Z,34.20
2023-01-08T01:10:23.595Z,30.17
2023-01-08T01:13:10.575Z,34.63
2023-01-08T01:15:51.575Z,28.58
2023-01-08T01:18:38.607Z,28.98
2023-01-08T01:21:24.679Z,30.55
2023-01-08T01:24:13.880Z,30.55
2023-01-08T01:26:56.779Z,27.00
2023-01-08T01:29:43.577Z,27.67
2023-01-08T01:32:24.545Z,25.30
2023-01-08T01:35:12.783Z,28.90
2023-01-08T01:37:53.846Z,29.55
2023-01-08T01:40:40.987Z,32.45
2023-01-08T01:43:22.053Z,29.05
2023-01-08T01:46:09.914Z,29.95
2023-01-08T01:48:50.414Z,31.55
2023-01-08T01:51:41.585Z,33.95
2023-01-08T01:54:24.792Z,34.70
2023-01-08T01:57:13.511Z,35.33
2023-01-08T01:59:55.986Z,32.05
2023-01-08T02:02:53.589Z,37.17
2023-01-08T02:05:42.866Z,39.17
2023-01-08T02:08:59.504Z,32.42
2023-01-08T02:12:11.071Z,31.40
2023-01-08T02:15:04.937Z,33.08
2023-01-08T02:18:12.637Z,29.63
2023-01-08T02:21:14.484Z,28.08
2023-01-08T02:24:16.926Z,31.77
2023-01-08T02:27:06.534Z,30.10
2023-01-08T02:29:48.714Z,28.20
2023-01-08T02:32:43.668Z,31.77
2023-01-08T02:35:24.570Z,36.30
2023-01-08T02:38:12.572Z,29.58
2023-01-08T02:41:11.738Z,31.05
2023-01-08T02:44:01.787Z,30.58
2023-01-08T02:46:56.568Z,23.52
2023-01-08T02:49:48.891Z,23.75
2023-01-08T02:52:33.664Z,23.13
2023-01-08T02:55:22.554Z,22.52
2023-01-08T02:58:05.155Z,21.90
2023-01-08T03:00:53.495Z,29.92
2023-01-08T03:03:37.085Z,32.13
2023-01-08T03:06:28.047Z,29.20
2023-01-08T03:09:09.672Z,26.15
2023-01-08T03:12:34.552Z,27.83
2023-01-08T03:15:18.468Z,28.30
2023-01-08T03:18:11.536Z,24.25
2023-01-08T03:20:54.478Z,25.88
2023-01-08T03:23:43.816Z,23.83
2023-01-08T03:26:29.846Z,25.83
2023-01-08T03:29:21.611Z,23.65
2023-01-08T03:32:09.934Z,23.70
2023-01-08T03:34:57.517Z,21.17
2023-01-08T03:37:42.665Z,21.95
2023-01-08T03:40:46.616Z,20.67
2023-01-08T03:43:29.442Z,20.25
2023-01-08T03:46:28.642Z,19.75
2023-01-08T03:49:10.678Z,22.23
2023-01-08T03:51:57.378Z,20.23
2023-01-08T03:54:41.587Z,20.67
2023-01-08T03:57:28.518Z,22.52
2023-01-08T04:00:09.662Z,23.80
2023-01-08T04:02:56.904Z,25.80
2023-01-08T04:05:37.576Z,22.63
2023-01-08T04:08:24.879Z,24.63
2023-01-08T04:11:05.821Z,22.55
2023-01-08T04:13:52.888Z,23.60
2023-01-08T04:16:35.030Z,23.65
2023-01-08T04:19:21.662Z,24.58
2023-01-08T04:22:02.550Z,26.65
2023-01-08T04:24:49.831Z,24.95
2023-01-08T04:27:30.912Z,26.95
2023-01-08T04:30:18.685Z,28.77
2023-01-08T04:32:59.969Z,27.40
2023-01-08T04:35:46.709Z,23.52
2023-01-08T04:38:27.693Z,26.65
2023-01-08T04:41:14.561Z,24.98
2023-01-08T04:43:55.766Z,25.20
2023-01-08T04:46:43.739Z,23.20
2023-01-08T04:49:24.741Z,24.27
2023-01-08T04:52:11.836Z,24.20
2023-01-08T04:54:52.762Z,24.33
2023-01-08T04:57:40.500Z,24.50
2023-01-08T05:00:21.531Z,24.55
2023-01-08T05:03:09.033Z,24.58
2023-01-08T05:05:50.047Z,27.08
2023-01-08T05:08:36.674Z,22.98
2023-01-08T05:11:18.067Z,22.10
2023-01-08T05:14:04.995Z,22.23
2023-01-08T05:16:45.636Z,19.05
2023-01-08T05:19:32.694Z,18.63
2023-01-08T05:22:13.738Z,18.95
2023-01-08T05:25:00.604Z,21.33
2023-01-08T05:27:42.000Z,19.55
2023-01-08T05:30:28.670Z,21.13
2023-01-08T05:33:09.751Z,20.63
2023-01-08T05:35:56.614Z,22.73
2023-01-08T05:38:37.897Z,22.77
2023-01-08T05:41:24.714Z,21.25
2023-01-08T05:44:05.593Z,21.30
2023-01-08T05:46:59.809Z,23.92
2023-01-08T05:49:46.550Z,22.75
2023-01-08T05:52:27.713Z,22.38
2023-01-08T05:55:14.905Z,24.35
2023-01-08T05:57:55.951Z,24.33
2023-01-08T06:00:42.938Z,26.70
2023-01-08T06:03:26.614Z,22.27
2023-01-08T06:06:16.326Z,18.30
2023-01-08T06:09:03.675Z,16.60
2023-01-08T06:11:44.730Z,15.50
2023-01-08T06:14:31.643Z,15.48
2023-01-08T06:17:12.883Z,15.68
2023-01-08T06:19:59.784Z,17.17
2023-01-08T06:22:40.580Z,18.88
2023-01-08T06:25:27.670Z,18.15
2023-01-08T06:28:08.622Z,18.98
2023-01-08T06:30:55.944Z,22.42
2023-01-08T06:33:37.730Z,17.45
2023-01-08T06:36:24.765Z,19.42
2023-01-08T06:39:06.076Z,19.08
2023-01-08T06:41:52.633Z,20.23
2023-01-08T06:44:33.724Z,21.40
2023-01-08T06:47:35.589Z,19.02
2023-01-08T06:50:22.962Z,18.52
2023-01-08T06:53:03.782Z,19.27
2023-01-08T06:55:56.418Z,17.55
2023-01-08T06:58:37.612Z,25.88
2023-01-08T07:01:24.934Z,23.70
2023-01-08T07:04:05.726Z,29.35
2023-01-08T07:06:52.941Z,27.70
2023-01-08T07:09:33.700Z,23.85
2023-01-08T07:12:21.633Z,23.30
2023-01-08T07:15:03.059Z,20.55
2023-01-08T07:17:49.746Z,25.83
2023-01-08T07:20:37.673Z,22.00
2023-01-08T07:23:24.685Z,22.98
2023-01-08T07:26:09.743Z,19.90
2023-01-08T07:28:56.864Z,27.88
2023-01-08T07:31:37.816Z,22.95
2023-01-08T07:34:18.375Z,19.92
2023-01-08T07:37:06.640Z,33.15
2023-01-08T07:39:53.875Z,24.48
2023-01-08T07:42:35.162Z,20.98
2023-01-08T07:45:28.789Z,21.83
2023-01-08T07:48:17.663Z,21.15
2023-01-08T07:50:58.665Z,23.05
2023-01-08T07:53:45.606Z,16.45
2023-01-08T07:56:26.629Z,14.55
2023-01-08T07:59:13.607Z,15.93
2023-01-08T08:01:55.309Z,14.15
2023-01-08T08:04:42.704Z,16.42
2023-01-08T08:07:23.713Z,17.13
2023-01-08T08:10:11.978Z,17.92
2023-01-08T08:12:53.135Z,20.63
2023-01-08T08:15:41.157Z,20.13
2023-01-08T08:18:21.952Z,21.13
2023-01-08T08:21:08.837Z,20.83
2023-01-08T08:23:49.807Z,19.65
2023-01-08T08:26:36.807Z,38.42
2023-01-08T08:29:17.856Z,16.90
2023-01-08T08:32:04.653Z,27.52
2023-01-08T08:34:45.937Z,31.45
2023-01-08T08:37:32.739Z,21.75
2023-01-08T08:40:13.928Z,17.15
2023-01-08T08:43:11.156Z,17.67
2023-01-08T08:46:04.693Z,13.20
2023-01-08T08:48:52.970Z,14.65
2023-01-08T08:51:33.975Z,15.55
2023-01-08T08:54:20.741Z,17.35
2023-01-08T08:57:01.761Z,16.55
2023-01-08T08:59:49.883Z,20.13
2023-01-08T09:02:31.124Z,16.25
2023-01-08T09:05:18.710Z,17.20
2023-01-08T09:07:59.950Z,22.73
2023-01-08T09:10:49.067Z,17.88
2023-01-08T09:13:30.294Z,22.13
2023-01-08T09:16:16.810Z,29.23
2023-01-08T09:18:57.914Z,22.13
2023-01-08T09:21:44.945Z,19.15
2023-01-08T09:24:26.079Z,20.08
2023-01-08T09:27:13.979Z,23.95
2023-01-08T09:29:55.840Z,24.08
2023-01-08T09:32:43.194Z,21.65
2023-01-08T09:35:23.805Z,21.98
2023-01-08T09:38:11.365Z,20.48
2023-01-08T09:41:05.891Z,15.55
2023-01-08T09:43:54.804Z,16.92
2023-01-08T09:46:50.063Z,21.55
2023-01-08T09:49:53.535Z,20.80
2023-01-08T09:52:35.365Z,21.55
2023-01-08T09:55:23.845Z,24.10
2023-01-08T09:58:05.967Z,24.45
2023-01-08T10:00:52.964Z,23.75
2023-01-08T10:03:42.248Z,19.77
2023-01-08T10:06:31.141Z,19.65
2023-01-08T10:09:12.228Z,23.73
2023-01-08T10:12:01.845Z,22.70
2023-01-08T10:20:54.770Z,17.70
2023-01-08T10:23:42.415Z,14.07
2023-01-08T10:26:45.462Z,16.55
2023-01-08T10:29:33.983Z,18.30
2023-01-08T10:32:21.375Z,14.93
2023-01-08T10:35:16.694Z,19.88
2023-01-08T10:38:12.557Z,19.38
2023-01-08T10:41:12.486Z,16.85
2023-01-08T10:44:03.702Z,19.50
2023-01-08T10:46:57.409Z,17.25
2023-01-08T10:49:46.963Z,17.15
2023-01-08T10:52:34.574Z,18.50
2023-01-08T10:55:39.267Z,19.67
2023-01-08T10:58:26.561Z,21.15
2023-01-08T11:01:26.275Z,17.08
2023-01-08T11:04:13.933Z,17.50
2023-01-08T11:06:58.105Z,19.85
2023-01-08T11:09:54.704Z,19.17
2023-01-08T11:12:49.302Z,19.17
2023-01-08T11:15:43.122Z,18.63
2023-01-08T11:18:35.432Z,19.25
2023-01-08T11:21:31.420Z,17.67
2023-01-08T11:24:30.499Z,18.60
2023-01-08T11:27:33.277Z,20.65
2023-01-08T11:30:34.084Z,19.85
2023-01-08T11:33:24.568Z,22.85
2023-01-08T11:36:18.295Z,22.38
2023-01-08T11:38:59.001Z,19.55
2023-01-08T11:41:58.808Z,22.75
2023-01-08T11:44:53.338Z,18.35
2023-01-08T11:47:50.041Z,19.05
2023-01-08T11:50:55.895Z,17.15
2023-01-08T11:53:54.177Z,19.58
2023-01-08T11:56:47.246Z,18.58
2023-01-08T11:59:55.057Z,22.38
2023-01-08T12:02:49.206Z,25.05
2023-01-08T12:06:21.294Z,21.48
2023-01-08T12:09:17.540Z,26.35
2023-01-08T12:12:20.267Z,26.08
2023-01-08T12:15:09.967Z,30.90
2023-01-08T12:18:18.895Z,25.02
2023-01-08T12:22:15.962Z,27.05
2023-01-08T12:25:16.001Z,15.27
2023-01-08T12:28:22.029Z,11.10
2023-01-08T12:31:10.019Z,12.98
2023-01-08T12:34:02.352Z,15.48
2023-01-08T12:36:54.373Z,25.08
2023-01-08T12:40:04.503Z,29.13
2023-01-08T12:43:00.433Z,25.77
2023-01-08T12:45:45.544Z,25.02
2023-01-08T12:48:38.890Z,22.50
2023-01-08T12:52:23.265Z,20.35
2023-01-08T12:55:35.885Z,31.27
2023-01-08T12:58:58.501Z,26.15
2023-01-08T13:02:29.016Z,25.05
2023-01-08T13:05:27.327Z,28.95
2023-01-08T13:18:29.591Z,25.15
2023-01-08T13:21:12.581Z,17.77
2023-01-08T13:24:08.201Z,22.30
2023-01-08T13:26:49.346Z,24.83
2023-01-08T13:29:50.990Z,22.40
2023-01-08T13:32:57.363Z,30.98
2023-01-08T13:35:45.309Z,12.90
2023-01-08T13:38:49.832Z,26.35
2023-01-08T13:42:05.569Z,24.73
2023-01-08T13:44:49.615Z,35.53
2023-01-08T13:50:54.499Z,18.52
2023-01-08T14:05:56.151Z,18.85
2023-01-08T14:08:43.527Z,14.70
2023-01-08T14:11:26.076Z,16.25
2023-01-08T14:14:19.353Z,24.20
2023-01-08T14:16:59.955Z,26.58
2023-01-08T14:19:48.208Z,19.50
2023-01-08T14:22:42.343Z,19.40
2023-01-08T14:25:30.115Z,35.10
2023-01-08T14:28:13.964Z,22.00
2023-01-08T14:31:03.118Z,19.25
2023-01-08T14:33:44.979Z,20.00
2023-01-08T14:36:33.626Z,12.02
2023-01-08T14:39:32.356Z,24.30
2023-01-08T14:42:42.812Z,12.95
2023-01-08T14:45:33.443Z,11.25
2023-01-08T14:48:46.483Z,10.45
2023-01-08T14:51:35.309Z,30.35
2023-01-08T14:54:29.211Z,13.43
2023-01-08T14:57:14.321Z,20.17
2023-01-08T15:00:07.659Z,21.85
2023-01-08T15:02:50.060Z,16.27
2023-01-08T15:05:41.850Z,21.33
2023-01-08T15:08:35.713Z,16.10
2023-01-08T15:11:32.515Z,16.25
2023-01-08T15:14:21.483Z,14.50
2023-01-08T15:17:19.263Z,15.55
2023-01-08T15:20:08.220Z,15.82
2023-01-08T15:22:59.357Z,15.82
2023-01-08T15:25:41.645Z,17.90
2023-01-08T15:28:33.458Z,15.10
2023-01-08T15:31:19.043Z,14.98
2023-01-08T15:34:11.553Z,11.82
2023-01-08T15:36:55.377Z,12.15
2023-01-08T15:39:44.420Z,9.60
2023-01-08T15:42:50.125Z,10.10
2023-01-08T15:45:42.539Z,10.60
2023-01-08T15:48:27.203Z,9.98
2023-01-08T15:51:17.026Z,9.68
2023-01-08T15:54:05.477Z,9.90
2023-01-08T15:56:53.139Z,9.77
2023-01-08T15:59:35.848Z,10.02
2023-01-08T16:02:24.280Z,10.25
2023-01-08T16:05:19.852Z,10.77
2023-01-08T16:08:13.820Z,9.65
2023-01-08T16:11:04.365Z,9.75
2023-01-08T16:13:52.551Z,11.43
2023-01-08T16:16:43.065Z,9.73
2023-01-08T16:19:27.665Z,10.68
2023-01-08T16:22:19.857Z,11.00
2023-01-08T16:25:09.134Z,22.20
2023-01-08T16:28:01.126Z,33.00
2023-01-08T16:30:43.254Z,33.55
2023-01-08T16:33:31.173Z,23.08
2023-01-08T16:36:14.211Z,24.63
2023-01-08T16:39:06.617Z,21.65
2023-01-08T16:41:48.989Z,23.30
2023-01-08T16:44:37.177Z,15.88
2023-01-08T16:47:18.211Z,20.08
2023-01-08T16:50:05.496Z,20.17
2023-01-08T16:52:47.870Z,19.55
2023-01-08T16:55:36.907Z,20.15
2023-01-08T16:58:18.682Z,21.08
2023-01-08T17:01:07.535Z,22.40
2023-01-08T17:04:02.008Z,16.23
2023-01-08T17:06:57.135Z,14.05
2023-01-08T17:09:44.489Z,13.23
2023-01-08T17:12:28.906Z,10.68
2023-01-08T17:15:17.259Z,15.43
2023-01-08T17:17:58.652Z,18.42
2023-01-08T17:20:49.604Z,14.70
2023-01-08T17:23:37.142Z,18.85
2023-01-08T17:26:25.529Z,21.80
2023-01-08T17:29:06.550Z,15.68
2023-01-08T17:31:54.251Z,24.25
2023-01-08T17:34:35.608Z,23.08
2023-01-08T17:37:22.318Z,20.77
2023-01-08T17:40:07.401Z,100.63
2023-01-08T17:42:54.645Z,78.38
2023-01-08T17:45:37.241Z,44.55
2023-01-08T17:48:18.898Z,29.50
2023-01-08T17:51:09.440Z,12.70
2023-01-08T17:53:57.899Z,16.40
2023-01-08T17:56:39.291Z,15.45
2023-01-08T17:59:27.611Z,20.00
2023-01-08T18:02:09.832Z,23.42
2023-01-08T18:05:05.470Z,32.45
2023-01-08T18:07:52.057Z,58.13
2023-01-08T18:10:33.075Z,82.88
2023-01-08T18:13:21.346Z,80.78
2023-01-08T18:16:02.458Z,66.57
2023-01-08T18:18:50.414Z,50.60
2023-01-08T18:21:32.586Z,32.70
2023-01-08T18:24:28.730Z,27.98
2023-01-08T18:27:16.644Z,46.25
2023-01-08T18:29:57.315Z,36.92
2023-01-08T18:32:44.787Z,17.67
2023-01-08T18:35:26.393Z,20.75
2023-01-08T18:38:16.069Z,19.00
2023-01-08T18:40:57.579Z,19.52
2023-01-08T18:43:49.239Z,34.17
2023-01-08T18:46:37.005Z,19.88
2023-01-08T18:49:25.231Z,16.08
2023-01-08T18:52:07.215Z,17.73
2023-01-08T18:54:54.737Z,19.40
2023-01-08T18:57:42.759Z,16.50
2023-01-08T19:00:37.370Z,28.42
2023-01-08T19:03:23.029Z,26.70
2023-01-08T19:06:20.102Z,26.70
2023-01-08T19:09:03.027Z,20.58
2023-01-08T19:11:51.973Z,14.70
2023-01-08T19:14:37.208Z,16.40
2023-01-08T19:17:26.199Z,17.00
2023-01-08T19:20:08.446Z,17.55
2023-01-08T19:23:02.271Z,18.17
2023-01-08T19:25:48.092Z,20.02
2023-01-08T19:28:31.261Z,18.10
2023-01-08T19:31:19.709Z,18.25
2023-01-08T19:34:12.162Z,16.75
2023-01-08T19:36:55.295Z,17.75
2023-01-08T19:39:39.485Z,19.92
2023-01-08T19:42:48.850Z,19.90
2023-01-08T19:45:37.647Z,19.77
2023-01-08T19:48:20.764Z,20.02
2023-01-08T19:51:15.448Z,22.92
2023-01-08T19:53:59.672Z,19.10
2023-01-08T19:56:49.971Z,19.52
2023-01-08T19:59:35.082Z,21.65
2023-01-08T20:02:22.785Z,19.33
2023-01-08T20:05:13.600Z,21.48
2023-01-08T20:08:03.074Z,19.95
2023-01-08T20:10:51.849Z,19.65
2023-01-08T20:13:37.766Z,20.10
2023-01-08T20:16:27.890Z,18.25
2023-01-08T20:19:19.541Z,18.75
2023-01-08T20:22:11.552Z,14.43
2023-01-08T20:24:58.512Z,17.60
2023-01-08T20:27:46.824Z,17.75
2023-01-08T20:30:31.003Z,15.48
2023-01-08T20:33:23.850Z,14.98
2023-01-08T20:36:05.917Z,16.52
2023-01-08T20:39:01.067Z,16.23
2023-01-08T20:41:50.271Z,15.23
2023-01-08T20:44:52.748Z,14.95
2023-01-08T20:47:40.693Z,14.90
2023-01-08T20:50:29.073Z,16.13
2023-01-08T20:53:13.392Z,17.13
2023-01-08T20:56:02.190Z,15.18
2023-01-08T20:58:46.950Z,15.70
2023-01-08T21:01:41.759Z,13.82
2023-01-08T21:04:24.591Z,14.05
2023-01-08T21:07:22.062Z,16.20
2023-01-08T21:10:11.376Z,17.50
2023-01-08T21:13:09.909Z,17.27
2023-01-08T21:16:01.487Z,19.25
2023-01-08T21:18:45.220Z,18.58
2023-01-08T21:21:40.895Z,16.20
2023-01-08T21:24:31.445Z,19.00
2023-01-08T21:27:19.044Z,17.90
2023-01-08T21:30:01.976Z,17.90
2023-01-08T21:32:49.695Z,17.73
2023-01-08T21:35:32.568Z,19.88
2023-01-08T21:38:22.405Z,16.15
2023-01-08T21:41:10.453Z,18.75
2023-01-08T21:44:16.808Z,17.50
2023-01-08T21:46:58.278Z,16.05
2023-01-08T21:49:38.950Z,15.30
2023-01-08T21:52:45.355Z,17.75
2023-01-08T21:55:34.157Z,19.60
2023-01-08T21:58:15.333Z,17.88
2023-01-08T22:01:03.219Z,16.80
2023-01-08T22:03:44.233Z,18.70
2023-01-08T22:06:31.471Z,17.52
2023-01-08T22:09:12.339Z,17.38
2023-01-08T22:12:00.194Z,15.63
2023-01-08T22:14:41.233Z,15.85
2023-01-08T22:17:30.683Z,17.17
2023-01-08T22:20:13.729Z,19.00
2023-01-08T22:23:00.275Z,18.77
2023-01-08T22:25:41.357Z,15.80
2023-01-08T22:28:21.881Z,15.95
2023-01-08T22:31:10.662Z,15.23
2023-01-08T22:34:01.371Z,15.65
2023-01-08T22:36:42.275Z,15.15
2023-01-08T22:39:23.006Z,17.08
2023-01-08T22:42:11.569Z,17.08
2023-01-08T22:44:58.361Z,15.35
2023-01-08T22:47:39.376Z,15.98
2023-01-08T22:50:19.948Z,15.27
2023-01-08T22:53:08.689Z,17.48
2023-01-08T22:55:55.209Z,13.40
2023-01-08T22:58:36.556Z,14.68
2023-01-08T23:01:31.364Z,14.30
2023-01-08T23:04:12.252Z,16.10
2023-01-08T23:07:06.214Z,14.70
2023-01-08T23:09:54.638Z,16.35
2023-01-08T23:12:35.234Z,15.90
2023-01-08T23:15:22.145Z,15.52
2023-01-08T23:18:03.628Z,15.52
2023-01-08T23:20:50.362Z,13.43
2023-01-08T23:23:31.711Z,15.25
2023-01-08T23:26:28.552Z,15.05
2023-01-08T23:29:09.015Z,17.38
2023-01-08T23:31:57.295Z,16.55
2023-01-08T23:34:44.655Z,15.50
2023-01-08T23:37:25.444Z,14.75
2023-01-08T23:40:12.205Z,15.63
2023-01-08T23:42:53.302Z,14.68
2023-01-08T23:45:43.713Z,15.98
2023-01-08T23:48:24.347Z,14.65
2023-01-08T23:51:11.309Z,14.82
2023-01-08T23:53:52.610Z,17.15
2023-01-08T23:56:39.322Z,17.15
2023-01-08T23:59:20.265Z,21.00
